Time;durP1;ratioP1;P1;durP2;ratioP2;P2;SDS_P1;SDS_P2;PMS_P1;PMS_P2;Temp;Humidity;BMP_temperature;BMP_pressure;BME280_temperature;BME280_humidity;BME280_pressure;Samples;Min_cycle;Max_cycle;Signal;HPM_P1;HPM_P2
2022/06/06 00:01:33;;;;;;;;;6.00;6.00;;;;;18.90;100.00;101476.06;5037152;28;62822;-69
2022/06/06 00:03:59;;;;;;;;;7.67;7.00;;;;;18.88;100.00;101477.91;5033545;28;55102;-69
2022/06/06 00:06:25;;;;;;;;;7.00;7.00;;;;;18.84;100.00;101476.16;5036259;28;53888;-69
2022/06/06 00:08:50;;;;;;;;;4.00;4.00;;;;;18.78;100.00;101473.56;5038345;28;45410;-69
2022/06/06 00:11:16;;;;;;;;;11.00;7.67;;;;;18.76;100.00;101478.94;5023027;28;54945;-69
2022/06/06 00:13:44;;;;;;;;;6.67;6.67;;;;;18.73;100.00;101478.09;5038639;28;45552;-69
2022/06/06 00:16:09;;;;;;;;;8.67;6.67;;;;;18.70;100.00;101476.34;5032931;28;46562;-69
2022/06/06 00:18:35;;;;;;;;;6.00;6.00;;;;;18.66;100.00;101476.38;5029909;28;62370;-69
2022/06/06 00:21:01;;;;;;;;;9.67;8.00;;;;;18.61;100.00;101481.78;5032690;28;45550;-69
2022/06/06 00:23:27;;;;;;;;;9.33;7.00;;;;;18.58;100.00;101479.13;5042433;28;45487;-69
2022/06/06 00:25:54;;;;;;;;;6.67;6.00;;;;;18.56;100.00;101479.16;5032917;28;45835;-69
2022/06/06 00:28:20;;;;;;;;;6.00;6.00;;;;;18.52;100.00;101477.41;5036340;28;45261;-69
2022/06/06 00:30:45;;;;;;;;;5.33;5.33;;;;;18.49;100.00;101476.56;5031847;28;45253;-69
2022/06/06 00:35:57;;;;;;;;;6.67;6.67;;;;;18.41;100.00;101468.63;5036117;28;45204;-69
2022/06/06 00:38:22;;;;;;;;;8.67;6.67;;;;;18.38;100.00;101466.00;5044854;28;45253;-69
2022/06/06 00:40:49;;;;;;;;;6.00;6.00;;;;;18.36;100.00;101466.91;5032126;28;45339;-69
2022/06/06 00:43:15;;;;;;;;;6.67;6.67;;;;;18.34;100.00;101461.56;5029937;28;45466;-71
2022/06/06 00:45:41;;;;;;;;;6.00;6.00;;;;;18.32;100.00;101463.38;5031916;28;47056;-71
2022/06/06 00:48:24;;;;;;;;;8.00;6.00;;;;;18.30;100.00;101462.50;5037754;28;45515;-71
2022/06/06 00:51:06;;;;;;;;;6.33;6.33;;;;;18.27;100.00;101450.06;5020598;28;45609;-71
2022/06/06 00:54:06;;;;;;;;;7.00;7.00;;;;;18.26;100.00;101456.28;5034328;28;45430;-71
2022/06/06 00:56:39;;;;;;;;;7.00;5.67;;;;;18.27;100.00;101457.22;4996760;28;48497;-69
2022/06/06 00:59:17;;;;;;;;;6.00;6.00;;;;;18.26;100.00;101444.72;5035282;28;45304;-71
2022/06/06 01:01:43;;;;;;;;;8.33;7.00;;;;;18.28;100.00;101446.50;5035394;28;45414;-71
2022/06/06 01:04:11;;;;;;;;;9.67;9.00;;;;;18.30;100.00;101449.13;5032477;28;45569;-70
2022/06/06 01:06:39;;;;;;;;;12.00;11.00;;;;;18.31;100.00;101443.75;5033591;28;45480;-71
2022/06/06 01:09:04;;;;;;;;;7.67;7.67;;;;;18.33;100.00;101446.44;5036750;28;45289;-71
2022/06/06 01:11:37;;;;;;;;;8.33;8.33;;;;;18.36;100.00;101437.50;5035665;28;45564;-71
2022/06/06 01:14:04;;;;;;;;;9.00;9.00;;;;;18.36;100.00;101432.16;5037082;28;45153;-71
2022/06/06 01:16:53;;;;;;;;;10.33;8.67;;;;;18.37;100.00;101436.56;5035392;28;45889;-71
2022/06/06 01:20:00;;;;;;;;;7.33;7.33;;;;;18.38;100.00;101435.69;5018689;28;45414;-71
2022/06/06 01:22:56;;;;;;;;;10.00;10.00;;;;;18.37;100.00;101439.25;4998293;28;45372;-71
2022/06/06 01:25:38;;;;;;;;;8.33;8.33;;;;;18.31;100.00;101438.41;5031729;28;45593;-71
2022/06/06 01:28:48;;;;;;;;;8.33;7.33;;;;;18.31;100.00;101437.53;5036548;28;47490;-71
2022/06/06 01:31:22;;;;;;;;;7.33;7.00;;;;;18.30;100.00;101433.97;5036145;28;45454;-71
2022/06/06 01:34:08;;;;;;;;;11.00;8.00;;;;;18.28;100.00;101438.47;5027117;28;45335;-71
2022/06/06 01:36:35;;;;;;;;;10.00;9.67;;;;;18.28;100.00;101438.47;5019557;28;45598;-71
2022/06/06 01:39:05;;;;;;;;;9.00;8.00;;;;;18.26;100.00;101437.59;5023062;28;47589;-71
2022/06/06 01:41:50;;;;;;;;;9.33;8.00;;;;;18.23;100.00;101439.44;5035160;28;45276;-71
2022/06/06 01:44:21;;;;;;;;;8.00;7.00;;;;;18.23;100.00;101448.34;5035655;28;45518;-71
2022/06/06 01:46:47;;;;;;;;;8.00;8.00;;;;;18.22;100.00;101437.66;5027665;28;45282;-71
2022/06/06 01:49:14;;;;;;;;;10.67;9.00;;;;;18.22;100.00;101443.00;5032397;28;47602;-71
2022/06/06 01:51:40;;;;;;;;;10.00;9.33;;;;;18.23;100.00;101440.31;5039659;28;45519;-69
2022/06/06 01:54:06;;;;;;;;;11.33;11.33;;;;;18.22;100.00;101441.22;5024506;28;45335;-71
2022/06/06 01:56:38;;;;;;;;;11.33;11.33;;;;;18.21;100.00;101442.09;5034163;28;45441;-71
2022/06/06 01:59:04;;;;;;;;;11.00;10.33;;;;;18.20;100.00;101434.97;5034555;28;46833;-70
2022/06/06 02:01:30;;;;;;;;;8.00;8.00;;;;;18.22;100.00;101435.88;5032849;28;45303;-71
2022/06/06 02:03:56;;;;;;;;;10.00;10.00;;;;;18.25;100.00;101448.31;5036744;28;45249;-71
2022/06/06 02:06:21;;;;;;;;;13.00;11.33;;;;;18.28;100.00;101442.94;5036674;28;45395;-71
2022/06/06 02:08:47;;;;;;;;;11.00;10.67;;;;;18.28;100.00;101437.59;5027536;28;47375;-71
2022/06/06 02:11:13;;;;;;;;;8.33;8.33;;;;;18.31;100.00;101429.50;5036093;28;45347;-71
2022/06/06 02:13:38;;;;;;;;;11.33;7.33;;;;;18.31;100.00;101437.53;5035935;28;45289;-71
2022/06/06 02:16:04;;;;;;;;;9.67;9.67;;;;;18.26;100.00;101424.22;5017228;28;45487;-71
2022/06/06 02:18:29;;;;;;;;;11.33;10.00;;;;;18.23;100.00;101426.06;5028649;28;45502;-71
2022/06/06 02:20:55;;;;;;;;;10.33;9.00;;;;;18.18;100.00;101423.44;5030453;28;45450;-71
2022/06/06 02:23:21;;;;;;;;;12.00;10.00;;;;;18.13;100.00;101417.25;5031757;28;45469;-69
2022/06/06 02:25:46;;;;;;;;;9.00;9.00;;;;;18.10;100.00;101425.28;5036414;28;45380;-71
2022/06/06 02:28:12;;;;;;;;;12.67;11.00;;;;;18.07;100.00;101430.69;5030910;28;46518;-71
2022/06/06 02:30:38;;;;;;;;;9.33;9.33;;;;;18.03;100.00;101426.25;5005873;28;45494;-69
2022/06/06 02:33:04;;;;;;;;;11.00;10.00;;;;;18.02;100.00;101427.16;5032074;28;45417;-71
2022/06/06 02:35:32;;;;;;;;;12.33;12.33;;;;;17.99;100.00;101421.84;5036197;28;45382;-71
2022/06/06 02:37:59;;;;;;;;;14.67;13.00;;;;;18.00;100.00;101426.28;5043526;28;47110;-71
2022/06/06 02:40:26;;;;;;;;;13.67;12.67;;;;;18.00;100.00;101428.94;5021341;28;45331;-71
2022/06/06 02:42:51;;;;;;;;;11.67;11.67;;;;;17.98;100.00;101431.66;5032926;28;45301;-71
2022/06/06 02:45:18;;;;;;;;;13.33;12.67;;;;;17.96;100.00;101437.94;5035560;28;45358;-71
2022/06/06 02:47:49;;;;;;;;;16.33;16.00;;;;;17.93;100.00;101440.63;5036064;28;46092;-71
2022/06/06 02:50:18;;;;;;;;;21.33;18.33;;;;;17.91;100.00;101437.97;5037266;28;45797;-71
2022/06/06 02:52:43;;;;;;;;;22.33;19.67;;;;;17.91;100.00;101439.75;5022346;28;45570;-71
2022/06/06 02:55:10;;;;;;;;;18.67;17.67;;;;;17.88;100.00;101427.28;5028225;28;55810;-71
2022/06/06 02:57:37;;;;;;;;;19.00;16.00;;;;;17.84;100.00;101425.53;5034702;28;47795;-71
2022/06/06 03:00:08;;;;;;;;;18.33;17.00;;;;;17.81;100.00;101422.91;5035608;28;45441;-71
2022/06/06 03:02:35;;;;;;;;;17.67;13.00;;;;;17.80;100.00;101426.50;5048907;28;45533;-71
2022/06/06 03:05:00;;;;;;;;;14.67;14.00;;;;;17.77;100.00;101421.16;5027746;28;45505;-71
2022/06/06 03:07:34;;;;;;;;;16.67;14.67;;;;;17.72;100.00;101415.88;5035202;28;46555;-71
2022/06/06 03:10:29;;;;;;;;;15.33;13.00;;;;;17.67;100.00;101416.78;5032569;28;45483;-71
2022/06/06 03:13:31;;;;;;;;;16.00;13.33;;;;;17.64;100.00;101423.03;5034839;28;45384;-71
2022/06/06 03:22:16;;;;;;;;;12.67;9.00;;;;;17.55;100.00;101424.00;5022650;28;45451;-71
2022/06/06 03:25:01;;;;;;;;;10.00;8.33;;;;;17.53;100.00;101424.91;5030593;28;45380;-71
2022/06/06 03:28:00;;;;;;;;;7.33;6.33;;;;;17.51;100.00;101422.25;5032700;28;45409;-71
2022/06/06 03:30:44;;;;;;;;;9.67;6.00;;;;;17.51;100.00;101426.69;5027332;28;47818;-71
2022/06/06 03:33:28;;;;;;;;;7.67;7.67;;;;;17.51;100.00;101434.72;5023595;28;45528;-71
2022/06/06 03:36:09;;;;;;;;;7.00;7.00;;;;;17.49;100.00;101426.72;5031513;28;45441;-71
2022/06/06 03:38:53;;;;;;;;;6.00;6.00;;;;;17.49;100.00;101432.06;5023217;28;45705;-71
2022/06/06 03:41:39;;;;;;;;;8.67;6.00;;;;;17.49;100.00;101433.84;5050642;28;46660;-70
2022/06/06 03:44:25;;;;;;;;;6.00;4.33;;;;;17.49;100.00;101434.72;5024637;28;45360;-71
2022/06/06 03:46:51;;;;;;;;;7.33;5.67;;;;;17.53;100.00;101441.81;5035370;28;45504;-71
2022/06/06 03:49:49;;;;;;;;;5.00;5.00;;;;;17.55;100.00;101437.34;5035104;28;45331;-71
2022/06/06 03:52:22;;;;;;;;;8.00;7.00;;;;;17.55;100.00;101437.34;5029096;28;46814;-70
2022/06/06 03:55:08;;;;;;;;;6.00;6.00;;;;;17.57;100.00;101437.31;5033949;28;45532;-70
2022/06/06 03:57:35;;;;;;;;;6.00;6.00;;;;;17.56;100.00;101432.88;5023349;28;45443;-70
2022/06/06 04:00:11;;;;;;;;;8.67;6.67;;;;;17.56;100.00;101435.56;5028067;28;45495;-70
2022/06/06 04:02:38;;;;;;;;;6.33;5.33;;;;;17.58;100.00;101443.56;5034955;28;45846;-71
2022/06/06 04:05:06;;;;;;;;;6.33;6.33;;;;;17.59;100.00;101435.53;5015166;28;46209;-71
2022/06/06 04:07:33;;;;;;;;;5.67;5.00;;;;;17.61;100.00;101440.88;5035050;28;45446;-70
2022/06/06 04:09:58;;;;;;;;;6.67;6.00;;;;;17.62;100.00;101440.84;5038696;28;45640;-71
2022/06/06 04:12:44;;;;;;;;;6.00;6.00;;;;;17.62;100.00;101451.53;5024410;28;45816;-70
2022/06/06 04:15:43;;;;;;;;;4.00;4.00;;;;;17.61;100.00;101443.53;5038321;28;45323;-71
2022/06/06 04:18:32;;;;;;;;;7.00;6.00;;;;;17.62;100.00;101447.97;5035486;28;45212;-71
2022/06/06 04:21:16;;;;;;;;;6.33;6.33;;;;;17.62;100.00;101459.53;5049151;28;45559;-71
2022/06/06 04:23:41;;;;;;;;;10.00;6.00;;;;;17.62;100.00;101454.19;5021247;28;46607;-71
2022/06/06 04:26:11;;;;;;;;;10.00;5.00;;;;;17.61;100.00;101463.13;5030261;28;45350;-70
2022/06/06 04:29:01;;;;;;;;;6.00;5.67;;;;;17.60;100.00;101458.69;5037613;28;45517;-70
2022/06/06 04:31:38;;;;;;;;;7.67;5.33;;;;;17.57;100.00;101461.34;5037995;28;45559;-70
2022/06/06 04:34:09;;;;;;;;;5.00;4.00;;;;;17.59;100.00;101464.03;5025673;28;47567;-71
2022/06/06 04:36:53;;;;;;;;;4.00;4.00;;;;;17.59;100.00;101454.25;5036516;28;45538;-70
2022/06/06 04:39:26;;;;;;;;;5.00;5.00;;;;;17.59;100.00;101458.69;5037323;28;45346;-71
2022/06/06 04:41:59;;;;;;;;;5.00;5.00;;;;;17.61;100.00;101444.41;5035980;28;45628;-71
2022/06/06 04:44:52;;;;;;;;;6.00;4.33;;;;;17.63;100.00;101441.72;5025295;28;46748;-71
2022/06/06 04:47:44;;;;;;;;;5.67;4.00;;;;;17.59;100.00;101448.00;5031268;28;45483;-71
2022/06/06 04:50:20;;;;;;;;;6.00;4.67;;;;;17.60;100.00;101453.34;5016890;28;45371;-71
2022/06/06 04:52:59;;;;;;;;;5.00;5.00;;;;;17.58;100.00;101443.56;5034359;28;45501;-71
2022/06/06 04:55:26;;;;;;;;;4.33;3.00;;;;;17.55;100.00;101452.47;5021781;28;45920;-71
2022/06/06 04:57:55;;;;;;;;;3.00;3.00;;;;;17.52;100.00;101441.81;5052583;28;45269;-70
2022/06/06 05:00:20;;;;;;;;;4.00;4.00;;;;;17.51;100.00;101443.59;5049257;28;45300;-71
2022/06/06 05:02:46;;;;;;;;;5.67;3.67;;;;;17.49;100.00;101449.88;5031350;28;45625;-71
2022/06/06 05:05:12;;;;;;;;;3.00;3.00;;;;;17.45;100.00;101451.66;5037022;28;47357;-70
2022/06/06 05:07:49;;;;;;;;;3.33;3.33;;;;;17.42;100.00;101456.16;5035319;28;45475;-70
2022/06/06 05:10:26;;;;;;;;;3.00;3.00;;;;;17.40;100.00;101463.28;5026965;28;45319;-70
2022/06/06 05:12:54;;;;;;;;;3.00;3.00;;;;;17.39;100.00;101466.84;5025363;28;45613;-70
2022/06/06 05:15:28;;;;;;;;;4.67;3.00;;;;;17.38;100.00;101457.06;5035284;28;48941;-70
2022/06/06 05:18:22;;;;;;;;;3.33;2.33;;;;;17.34;100.00;101457.97;5030830;28;45630;-70
2022/06/06 05:21:25;;;;;;;;;2.67;2.67;;;;;17.29;100.00;101458.91;5034441;28;45414;-70
2022/06/06 05:24:09;;;;;;;;;3.00;3.00;;;;;17.30;100.00;101467.78;5051240;28;46119;-71
2022/06/06 05:26:52;;;;;;;;;2.00;2.00;;;;;17.28;100.00;101465.13;5036223;28;46095;-70
2022/06/06 05:29:48;;;;;;;;;2.00;2.00;;;;;17.31;100.00;101460.66;5033968;28;45451;-70
2022/06/06 05:32:23;;;;;;;;;1.33;1.33;;;;;17.30;100.00;101465.13;5022914;28;45505;-70
2022/06/06 05:35:22;;;;;;;;;2.00;2.00;;;;;17.29;100.00;101464.22;5019580;28;45436;-70
2022/06/06 05:38:07;;;;;;;;;2.33;2.33;;;;;17.29;100.00;101458.91;5019074;28;46203;-70
2022/06/06 05:40:38;;;;;;;;;2.00;2.00;;;;;17.28;100.00;101465.13;5000158;28;45419;-70
2022/06/06 05:43:12;;;;;;;;;3.00;2.00;;;;;17.29;100.00;101463.34;5022392;28;45368;-71
2022/06/06 05:45:49;;;;;;;;;1.67;1.33;;;;;17.28;100.00;101467.81;5036937;28;45398;-70
2022/06/06 05:48:48;;;;;;;;;1.00;1.00;;;;;17.29;100.00;101458.00;5047306;28;45475;-71
2022/06/06 05:51:26;;;;;;;;;1.00;1.00;;;;;17.31;100.00;101468.66;5023815;28;45399;-70
2022/06/06 05:54:06;;;;;;;;;4.00;3.00;;;;;17.33;100.00;101473.13;5036919;28;45536;-70
2022/06/06 05:56:51;;;;;;;;;1.00;1.00;;;;;17.34;100.00;101469.53;5026123;28;45466;-70
2022/06/06 05:59:47;;;;;;;;;1.67;1.67;;;;;17.35;100.00;101467.75;5035761;28;47016;-70
2022/06/06 06:02:39;;;;;;;;;1.00;1.00;;;;;17.32;100.00;101473.13;5031174;28;45494;-71
2022/06/06 06:05:11;;;;;;;;;2.00;2.00;;;;;17.33;100.00;101472.22;5033223;28;45561;-70
2022/06/06 06:07:52;;;;;;;;;3.00;2.00;;;;;17.35;100.00;101475.75;5020675;28;45525;-70
2022/06/06 06:10:46;;;;;;;;;4.00;2.00;;;;;17.36;100.00;101481.09;5031390;28;45663;-70
2022/06/06 06:13:37;;;;;;;;;1.00;1.00;;;;;17.39;100.00;101490.88;5033460;28;45451;-70
2022/06/06 06:16:04;;;;;;;;;1.00;1.00;;;;;17.40;100.00;101484.63;5028955;28;45409;-70
2022/06/06 06:18:34;;;;;;;;;2.00;2.00;;;;;17.40;100.00;101493.53;5022361;28;45306;-71
2022/06/06 06:21:08;;;;;;;;;2.33;1.00;;;;;17.42;100.00;101490.88;5030898;28;47547;-70
2022/06/06 06:23:36;;;;;;;;;2.00;2.00;;;;;17.46;100.00;101487.25;5034058;28;45351;-70
2022/06/06 06:26:05;;;;;;;;;1.33;1.33;;;;;17.48;100.00;101494.38;5034689;28;45523;-70
2022/06/06 06:28:33;;;;;;;;;2.00;2.00;;;;;17.48;100.00;101493.50;5036043;28;45296;-70
2022/06/06 06:31:22;;;;;;;;;3.00;2.00;;;;;17.49;100.00;101498.81;5026923;28;46481;-71
2022/06/06 06:33:55;;;;;;;;;1.67;1.67;;;;;17.49;100.00;101495.25;5024575;28;45506;-71
2022/06/06 06:36:46;;;;;;;;;2.00;2.00;;;;;17.47;100.00;101500.63;5034690;28;45386;-70
2022/06/06 06:39:40;;;;;;;;;3.00;3.00;;;;;17.51;100.00;101506.81;5034901;28;45671;-70
2022/06/06 06:42:30;;;;;;;;;4.00;2.00;;;;;17.51;100.00;101502.34;5034617;28;46803;-71
2022/06/06 06:45:03;;;;;;;;;4.33;3.00;;;;;17.59;100.00;101498.75;5024062;28;45443;-71
2022/06/06 06:47:34;;;;;;;;;2.00;2.00;;;;;17.60;100.00;101500.53;5034264;28;45402;-70
2022/06/06 06:50:07;;;;;;;;;2.00;2.00;;;;;17.61;100.00;101503.16;5026127;28;45279;-71
2022/06/06 06:52:55;;;;;;;;;4.00;4.00;;;;;17.64;100.00;101510.28;5020784;28;46670;-70
2022/06/06 06:55:36;;;;;;;;;2.67;2.67;;;;;17.66;100.00;101501.34;5025170;28;45546;-70
2022/06/06 06:58:20;;;;;;;;;3.00;2.00;;;;;17.68;100.00;101504.88;5028965;28;45335;-70
2022/06/06 07:00:54;;;;;;;;;4.00;2.00;;;;;17.72;100.00;101506.69;5018703;28;45592;-70
2022/06/06 07:09:15;;;;;;;;;4.00;2.00;;;;;17.86;100.00;101509.25;5025064;28;46508;-70
2022/06/06 07:12:08;;;;;;;;;3.00;2.00;;;;;17.89;100.00;101497.63;5013473;28;45549;-70
2022/06/06 07:15:11;;;;;;;;;4.00;3.00;;;;;17.95;100.00;101510.94;5008512;28;46706;-70
2022/06/06 07:17:43;;;;;;;;;1.00;1.00;;;;;18.00;100.00;101506.44;5022531;28;45958;-71
2022/06/06 07:20:10;;;;;;;;;1.00;1.00;;;;;18.05;100.00;101501.94;5014288;28;45488;-72
2022/06/06 07:23:00;;;;;;;;;1.33;1.00;;;;;18.11;100.00;101504.59;5028709;28;45471;-71
2022/06/06 07:25:26;;;;;;;;;1.67;1.67;;;;;18.13;100.00;101504.56;5004775;28;48692;-70
2022/06/06 07:27:52;;;;;;;;;0.00;0.00;;;;;18.12;100.00;101498.34;5016850;28;45497;-70
2022/06/06 07:30:21;;;;;;;;;1.00;1.00;;;;;18.13;100.00;101493.88;5027440;28;45359;-70
2022/06/06 07:33:04;;;;;;;;;2.00;2.00;;;;;18.14;100.00;101504.53;5032308;28;45637;-69
2022/06/06 07:35:34;;;;;;;;;1.00;1.00;;;;;18.13;100.00;101493.88;5017284;28;46543;-70
2022/06/06 07:38:42;;;;;;;;;2.67;2.00;;;;;18.11;100.00;101493.91;5019549;28;45634;-70
2022/06/06 07:41:14;;;;;;;;;2.33;2.33;;;;;18.09;100.00;101502.81;4992203;28;45549;-70
2022/06/06 07:44:01;;;;;;;;;1.00;1.00;;;;;18.07;100.00;101494.81;5022957;28;45648;-71
2022/06/06 07:46:44;;;;;;;;;1.00;1.00;;;;;18.10;100.00;101489.44;5017345;28;45824;-72
2022/06/06 07:49:23;;;;;;;;;1.67;1.67;;;;;18.11;100.00;101490.31;5037826;28;45525;-71
2022/06/06 07:52:00;;;;;;;;;1.33;1.33;;;;;18.12;100.00;101492.13;5026687;28;45451;-70
2022/06/06 07:54:39;;;;;;;;;2.00;1.00;;;;;18.16;100.00;101496.50;5017678;28;45467;-72
2022/06/06 07:57:26;;;;;;;;;2.00;2.00;;;;;18.20;100.00;101499.13;5011908;28;46128;-72
2022/06/06 08:00:06;;;;;;;;;1.00;1.00;;;;;18.23;100.00;101499.13;5039905;28;45317;-71
2022/06/06 08:02:34;;;;;;;;;2.00;2.00;;;;;18.27;100.00;101495.53;5027286;28;45413;-71
2022/06/06 08:05:11;;;;;;;;;3.33;1.00;;;;;18.30;100.00;101495.47;5014407;28;45468;-73
2022/06/06 08:07:46;;;;;;;;;2.00;2.00;;;;;18.29;100.00;101492.81;5032470;28;46299;-71
2022/06/06 08:10:26;;;;;;;;;2.00;2.00;;;;;18.31;100.00;101491.88;5036472;28;45459;-70
2022/06/06 08:13:20;;;;;;;;;1.00;1.00;;;;;18.35;100.00;101502.56;5030414;28;45573;-72
2022/06/06 08:15:57;;;;;;;;;3.00;1.67;;;;;18.41;100.00;101494.47;5036867;28;45500;-73
2022/06/06 08:18:40;;;;;;;;;2.00;2.00;;;;;18.44;100.00;101490.00;5034077;28;45548;-73
2022/06/06 08:21:16;;;;;;;;;3.00;1.00;;;;;18.47;100.00;101499.75;5020507;28;45332;-74
2022/06/06 08:23:42;;;;;;;;;1.00;1.00;;;;;18.48;100.00;101490.81;5016815;28;45567;-73
2022/06/06 08:26:08;;;;;;;;;0.33;0.33;;;;;18.51;100.00;101491.69;5019799;28;45490;-73
2022/06/06 08:28:37;;;;;;;;;2.00;2.00;;;;;18.58;100.00;101490.69;5042657;28;46898;-73
2022/06/06 08:31:06;;;;;;;;;0.33;0.33;;;;;18.65;100.00;101488.88;5035683;28;45370;-73
2022/06/06 08:33:31;;;;;;;;;1.33;1.33;;;;;18.71;100.00;101482.59;5027719;28;45499;-72
2022/06/06 08:36:31;;;;;;;;;0.33;0.33;;;;;18.74;100.00;101474.50;5036120;28;45507;-72
2022/06/06 08:39:08;;;;;;;;;3.67;2.00;;;;;18.74;100.00;101483.41;5037591;28;46467;-71
2022/06/06 08:41:56;;;;;;;;;1.33;1.33;;;;;18.78;100.00;101476.25;5026510;28;45542;-72
2022/06/06 08:44:59;;;;;;;;;5.33;3.00;;;;;18.69;100.00;101471.88;4989077;28;45541;-72
2022/06/06 08:47:30;;;;;;;;;10.67;6.67;;;;;18.74;100.00;101472.72;5012456;28;46314;-72
2022/06/06 08:50:46;;;;;;;;;6.00;5.33;;;;;18.78;100.00;101479.81;5019080;28;45396;-72
2022/06/06 08:53:38;;;;;;;;;6.00;4.00;;;;;18.84;100.00;101471.69;4999880;28;45557;-72
2022/06/06 08:56:21;;;;;;;;;4.33;3.00;;;;;18.88;100.00;101474.34;5024974;28;45454;-72
2022/06/06 08:59:17;;;;;;;;;1.00;1.00;;;;;18.96;100.00;101467.09;5031416;28;45585;-71
2022/06/06 09:02:19;;;;;;;;;9.67;7.67;;;;;19.07;100.00;101465.19;5040978;28;45775;-73
2022/06/06 09:05:03;;;;;;;;;20.00;17.00;;;;;19.24;100.00;101464.94;5035592;28;45190;-72
2022/06/06 09:08:00;;;;;;;;;67.25;52.25;;;;;19.29;100.00;101455.91;5034008;28;45341;-72
2022/06/06 09:10:52;;;;;;;;;53.00;42.50;;;;;19.40;100.00;101461.09;5020110;28;45366;-71
2022/06/06 09:13:37;;;;;;;;;5.00;5.00;;;;;19.51;100.00;101468.97;4984255;28;46393;-71
2022/06/06 09:16:27;;;;;;;;;1.67;0.00;;;;;19.66;100.00;101466.09;4996519;28;45577;-71
2022/06/06 09:19:11;;;;;;;;;0.67;0.67;;;;;19.77;100.00;101472.16;5037667;28;45412;-71
2022/06/06 09:21:49;;;;;;;;;0.67;0.00;;;;;19.79;100.00;101470.31;5034843;28;45566;-71
2022/06/06 09:27:28;;;;;;;;;0.00;0.00;;;;;19.79;100.00;101475.69;5158067;22;71660;-72
2022/06/06 09:30:09;;;;;;;;;0.00;0.00;;;;;19.92;100.00;101462.97;5057024;28;45421;-72
2022/06/06 09:33:11;;;;;;;;;0.00;0.00;;;;;20.04;98.31;101460.06;5054973;28;45577;-71
2022/06/06 09:35:36;;;;;;;;;1.67;0.00;;;;;20.12;98.49;101463.47;5056212;28;46575;-71
2022/06/06 09:38:24;;;;;;;;;0.00;0.00;;;;;20.19;99.67;101464.25;5055726;28;45341;-71
2022/06/06 09:41:17;;;;;;;;;0.67;0.67;;;;;20.31;97.14;101464.03;5052958;28;45541;-71
2022/06/06 09:44:28;;;;;;;;;1.00;1.00;;;;;20.49;96.21;101453.88;5053569;28;45420;-74
2022/06/06 09:47:23;;;;;;;;;1.00;0.00;;;;;20.64;95.44;101453.56;5019306;28;46477;-71
2022/06/06 09:50:01;;;;;;;;;0.00;0.00;;;;;20.73;94.59;101448.00;5040466;28;45478;-71
2022/06/06 09:52:38;;;;;;;;;0.00;0.00;;;;;20.83;95.97;101456.75;5056238;28;45341;-71
2022/06/06 10:00:52;;;;;;;;;0.00;0.00;;;;;21.22;95.24;101444.22;5039307;28;45530;-71
2022/06/06 10:03:29;;;;;;;;;0.00;0.00;;;;;21.28;86.21;101448.59;5055393;28;45415;-72
2022/06/06 10:05:56;;;;;;;;;1.00;1.00;;;;;21.27;88.52;101442.31;5055532;28;45296;-73
2022/06/06 10:08:46;;;;;;;;;2.00;0.67;;;;;21.28;86.95;101443.22;5056779;28;46028;-72
2022/06/06 10:11:44;;;;;;;;;0.00;0.00;;;;;21.35;86.73;101442.16;5048623;28;45807;-72
2022/06/06 10:14:31;;;;;;;;;0.00;0.00;;;;;21.47;87.86;101444.59;5056794;28;45506;-72
2022/06/06 10:17:04;;;;;;;;;2.00;0.00;;;;;21.49;84.95;101449.91;5056986;28;45435;-71
2022/06/06 10:20:01;;;;;;;;;0.33;0.00;;;;;21.41;84.35;101448.28;5033689;28;45667;-71
2022/06/06 10:22:54;;;;;;;;;0.00;0.00;;;;;21.32;82.54;101444.94;5014531;28;45549;-72
2022/06/06 10:25:33;;;;;;;;;1.00;0.00;;;;;21.36;87.03;101449.28;5054534;28;45402;-72
2022/06/06 10:28:16;;;;;;;;;2.00;0.67;;;;;21.31;86.16;101452.13;5034715;28;45694;-73
2022/06/06 10:30:54;;;;;;;;;0.00;0.00;;;;;21.34;86.69;101457.41;5055609;28;45309;-72
2022/06/06 10:33:56;;;;;;;;;3.00;3.00;;;;;21.32;85.21;101459.25;5035951;28;45630;-71
2022/06/06 10:36:21;;;;;;;;;0.33;0.33;;;;;21.24;86.33;101461.19;5015277;28;45829;-73
2022/06/06 10:39:24;;;;;;;;;4.00;1.00;;;;;21.09;85.21;101457.06;5056673;28;45659;-70
2022/06/06 10:41:59;;;;;;;;;4.00;4.00;;;;;21.02;84.81;101459.91;5055407;28;46965;-71
2022/06/06 10:44:39;;;;;;;;;3.00;3.00;;;;;21.12;86.79;101456.97;5054035;28;45474;-71
2022/06/06 10:47:20;;;;;;;;;6.00;6.00;;;;;21.23;88.04;101448.69;5038575;28;45450;-71
2022/06/06 10:50:04;;;;;;;;;2.67;2.00;;;;;21.26;85.32;101443.25;5038599;28;45509;-72
2022/06/06 10:52:36;;;;;;;;;6.33;6.33;;;;;21.24;83.49;101450.44;5054801;28;47508;-71
2022/06/06 10:55:33;;;;;;;;;4.00;4.00;;;;;21.15;82.38;101453.38;5055653;28;45169;-73
2022/06/06 10:58:10;;;;;;;;;17.33;16.33;;;;;21.13;83.26;101449.81;5049116;28;45510;-71
2022/06/06 11:00:53;;;;;;;;;2.00;2.00;;;;;21.18;83.39;101438.03;5055853;28;45433;-72
2022/06/06 11:03:30;;;;;;;;;0.00;0.00;;;;;21.29;85.28;101442.28;5054594;28;46727;-71
2022/06/06 11:06:26;;;;;;;;;0.00;0.00;;;;;21.44;84.41;101431.19;5035059;28;45430;-71
2022/06/06 11:09:00;;;;;;;;;2.00;1.00;;;;;21.50;85.12;101435.53;5037938;28;45403;-71
2022/06/06 11:11:44;;;;;;;;;1.00;1.00;;;;;21.46;84.34;101440.09;5056247;28;45569;-71
2022/06/06 11:14:32;;;;;;;;;2.00;0.33;;;;;21.39;85.65;101431.31;5048705;28;45840;-71
2022/06/06 11:17:18;;;;;;;;;17.33;6.33;;;;;21.47;85.33;101441.88;5058375;28;45342;-72
2022/06/06 11:19:50;;;;;;;;;3.00;0.00;;;;;21.54;84.54;101450.69;5044981;28;45253;-71
2022/06/06 11:22:49;;;;;;;;;17.00;7.67;;;;;21.58;84.73;101444.31;5059809;28;45496;-70
2022/06/06 11:25:17;;;;;;;;;19.33;6.00;;;;;21.56;82.61;101433.56;5041315;28;45912;-71
2022/06/06 11:27:52;;;;;;;;;1.33;1.00;;;;;21.53;82.70;101439.06;5058851;28;45459;-71
2022/06/06 11:30:38;;;;;;;;;0.67;0.00;;;;;21.59;84.74;101430.81;5061647;28;45584;-71
2022/06/06 11:33:41;;;;;;;;;0.67;0.67;;;;;21.81;84.96;101428.47;5038740;28;45519;-71
2022/06/06 11:36:41;;;;;;;;;0.00;0.00;;;;;22.13;82.91;101424.06;5057459;28;45815;-70
2022/06/06 11:39:43;;;;;;;;;0.33;0.33;;;;;22.37;80.08;101439.56;5057905;28;45375;-71
2022/06/06 11:42:26;;;;;;;;;0.00;0.00;;;;;22.44;79.83;101441.13;5057472;28;45743;-71
2022/06/06 11:45:20;;;;;;;;;0.00;0.00;;;;;22.64;77.33;101434.31;5059458;28;45442;-72
2022/06/06 11:47:52;;;;;;;;;0.00;0.00;;;;;22.84;80.27;101436.38;5037842;28;47388;-71
2022/06/06 11:50:35;;;;;;;;;0.00;0.00;;;;;22.95;79.51;101431.56;5058475;28;45500;-72
2022/06/06 11:53:19;;;;;;;;;2.00;2.00;;;;;22.95;78.40;101434.25;5039170;28;45482;-72
2022/06/06 11:56:33;;;;;;;;;1.00;1.00;;;;;23.02;75.87;101429.59;5052123;28;47085;-71
2022/06/06 11:59:16;;;;;;;;;1.00;1.00;;;;;23.21;74.62;101436.16;5024274;28;45630;-70
2022/06/06 12:02:00;;;;;;;;;0.00;0.00;;;;;23.51;77.87;101428.91;5059053;28;45563;-71
2022/06/06 12:04:25;;;;;;;;;1.00;1.00;;;;;23.71;77.10;101421.06;5058397;28;45473;-72
2022/06/06 12:07:28;;;;;;;;;0.00;0.00;;;;;23.68;74.31;101421.16;5059034;28;45609;-71
2022/06/06 12:09:56;;;;;;;;;2.00;0.33;;;;;23.62;77.29;101420.44;5052127;28;46525;-71
2022/06/06 12:12:49;;;;;;;;;0.00;0.00;;;;;23.47;74.41;101409.22;5057771;28;45220;-72
2022/06/06 12:15:48;;;;;;;;;0.00;0.00;;;;;23.32;73.69;101409.72;5055255;28;45333;-70
2022/06/06 12:18:23;;;;;;;;;2.00;1.00;;;;;23.21;72.53;101412.78;5058536;28;46140;-71
2022/06/06 12:21:23;;;;;;;;;0.00;0.00;;;;;23.20;72.08;101408.31;5057166;28;47721;-72
2022/06/06 12:24:27;;;;;;;;;0.00;0.00;;;;;23.21;72.97;101410.09;5034587;28;46361;-72
2022/06/06 12:27:07;;;;;;;;;2.00;1.00;;;;;23.45;73.44;101411.13;5056787;28;45423;-72
2022/06/06 12:29:32;;;;;;;;;0.00;0.00;;;;;23.73;73.02;101411.09;5053286;28;45589;-72
2022/06/06 12:32:09;;;;;;;;;0.00;0.00;;;;;23.86;70.94;101407.94;5058045;28;46148;-71
2022/06/06 12:35:09;;;;;;;;;0.00;0.00;;;;;23.73;69.79;101396.72;5028719;28;45494;-71